Portada
METAR-TAF:

METAR-TAF

Aeroports :

Ghriss, Algèria

latitud: 35-12N, longitud: 000-08E, altitud: 514 m

Observació

L'informe es va fer fa 24 minuts, a les 10:00 UTC
Vent 4 kt del Oest/Nord-Oest, variant entre Oest/Sud-Oest i Nord
Temperatura 32°C
Humitat 20%
Pressió 1018 hPa
Visibilitat 10 km o més
sense núvols per sota de 1500 mi sense presència de cumulonimbus.

METAR: DAOV 051000Z 30004KT 240V010 CAVOK 32/06 Q1018

Hora: 11:24 (10:24 UTC)

Pronòstic

L'informe es va fer fa 2 hores i 24 minuts, a les 08:00 UTC
Pronòstic vàlid del 05 a les 09 UTC al 05 a les 18 UTC
Vent 2 kt amb direcció variable
Visibilitat 10 km o més
sense núvols per sota de 1500 mi sense presència de cumulonimbus.
Evolucionant progressivament
l' 05 a les 10 UTC al 05 a les 12 UTC
Vent 10 kt del Nord/Nord-Oest

TAF: DAOV 050800Z 0509/0518 VRB02KT CAVOK BECMG 0510/0512 34010KT

Observacions i pronòstics meteorològics de més de 4000 aeroports (METAR i TAF).

Les estacions disponibles són els punts grocs i vermells al mapa.

Posi el ratolí al punt desitjat per veure el nom de l'estació.

Feu clic per veure les observacions i els pronòstics meteorològics.

Per canviar el mapa: feu clic els botons verds amb una creu de color negre per apropar; al botó verd amb un guió per allunyar la imatge; o en les fletxes verdes per a mapes adjacents.


METAR-TAF: